Morgan Center, Vermont
Current Conditions -  °F | °C
As of 12:15 AM on Thursday 23 Oct 2014 (Local Time) from KEFK Reporting Station
Overcast Overcast  
Wind Chill: 38°   Ceiling: 2700
Heat Index: 45°   Visibility: 10mi
Dew Point: 37°   Wind: 15mph
Humidity: 73%   Direction: 10°N
Pressure: 30.1"   Gusts: NA
Location:  44.8955°N, 71.9637°W
Report Text: KEFK 230415Z AUTO 01013KT 10SM OVC027 07/03 A3010 RMK AO2 T00730027
Loading
Personal Weather Stations






























Interactive Weather Map
Tropical Storm Tracking
New forecast layout! Learn more

10-Day Weather Forecast

Advertisements
Track Severe Weather on mobile